Time;durP1;ratioP1;P1;durP2;ratioP2;P2;SDS_P1;SDS_P2;PMS_P1;PMS_P2;Temp;Humidity;BMP_temperature;BMP_pressure;BME280_temperature;BME280_humidity;BME280_pressure;Samples;Min_cycle;Max_cycle;Signal;HPM_P1;HPM_P2
2023/01/27 00:01:10;;;;;;;2.70;2.50;;;22.00;51.20;;;;;;4931092;29;20468;-65
2023/01/27 00:03:38;;;;;;;2.70;2.50;;;22.00;51.20;;;;;;4935457;29;20546;-65
2023/01/27 00:06:10;;;;;;;2.90;2.70;;;22.00;51.20;;;;;;4935471;29;20460;-65
2023/01/27 00:08:40;;;;;;;2.30;2.10;;;22.00;51.20;;;;;;4930177;29;20467;-65
2023/01/27 00:13:54;;;;;;;2.77;2.50;;;22.00;51.30;;;;;;4932145;29;20515;-65
2023/01/27 00:16:22;;;;;;;2.53;2.33;;;22.00;51.30;;;;;;4930472;29;21465;-65
2023/01/27 00:18:50;;;;;;;2.10;2.00;;;22.00;51.30;;;;;;4936599;29;20550;-65
2023/01/27 00:26:51;;;;;;;2.40;2.20;;;22.00;51.30;;;;;;4934902;29;20467;-65
2023/01/27 00:29:19;;;;;;;1.90;1.80;;;22.00;51.40;;;;;;4936122;29;20496;-65
2023/01/27 00:34:34;;;;;;;3.00;2.80;;;22.00;51.30;;;;;;4931014;29;20462;-65
2023/01/27 00:37:02;;;;;;;2.30;2.17;;;22.00;51.30;;;;;;4929838;29;20471;-65
2023/01/27 00:39:34;;;;;;;3.23;2.30;;;22.00;51.30;;;;;;4949050;29;20507;-65
2023/01/27 00:42:02;;;;;;;2.80;2.60;;;22.00;51.30;;;;;;4932017;29;20586;-65
2023/01/27 00:44:30;;;;;;;2.13;2.03;;;21.90;51.40;;;;;;4932647;29;20469;-65
2023/01/27 00:46:58;;;;;;;2.30;2.17;;;22.00;51.30;;;;;;4932689;29;20987;-65
2023/01/27 00:49:27;;;;;;;2.00;1.90;;;21.90;51.40;;;;;;4932834;29;20922;-65
2023/01/27 00:51:55;;;;;;;2.67;2.23;;;21.90;51.40;;;;;;4930587;29;20527;-65
2023/01/27 00:54:23;;;;;;;2.70;2.30;;;21.90;51.40;;;;;;4931110;29;20456;-65
2023/01/27 00:56:52;;;;;;;1.93;1.83;;;21.90;51.40;;;;;;4932678;29;21317;-65
2023/01/27 00:59:21;;;;;;;2.83;2.53;;;21.90;51.40;;;;;;4932477;29;20884;-65
2023/01/27 01:01:50;;;;;;;2.03;1.90;;;21.90;51.40;;;;;;4930061;29;20464;-65
2023/01/27 01:04:18;;;;;;;2.27;2.07;;;21.90;51.40;;;;;;4934247;29;20472;-65
2023/01/27 01:06:46;;;;;;;2.30;2.10;;;21.90;51.40;;;;;;4933135;29;20472;-65
2023/01/27 01:09:14;;;;;;;2.43;2.23;;;21.90;51.50;;;;;;4931316;29;20473;-65
2023/01/27 01:11:43;;;;;;;2.10;2.00;;;21.80;51.50;;;;;;4926624;29;20507;-65
2023/01/27 01:14:12;;;;;;;2.50;2.30;;;21.90;51.40;;;;;;4923449;29;20455;-64
2023/01/27 01:16:40;;;;;;;2.37;2.27;;;21.90;51.40;;;;;;4933360;29;20836;-64
2023/01/27 01:19:08;;;;;;;2.60;2.40;;;21.90;51.40;;;;;;4934249;29;20935;-65
2023/01/27 01:21:37;;;;;;;1.90;1.80;;;21.90;51.40;;;;;;4944426;29;20867;-65
2023/01/27 01:24:08;;;;;;;2.50;2.30;;;21.90;51.30;;;;;;4926267;29;20904;-65
2023/01/27 01:26:36;;;;;;;2.77;2.57;;;21.90;51.30;;;;;;4934800;29;20469;-65
2023/01/27 01:29:05;;;;;;;2.00;1.90;;;21.90;51.30;;;;;;4930146;29;20495;-65
2023/01/27 01:31:35;;;;;;;2.17;1.97;;;21.90;51.20;;;;;;4941985;29;20500;-65
2023/01/27 01:34:04;;;;;;;2.50;2.30;;;21.90;51.20;;;;;;4925069;29;21034;-65
2023/01/27 01:36:32;;;;;;;1.80;1.70;;;21.90;51.20;;;;;;4930523;29;20463;-65
2023/01/27 01:39:00;;;;;;;2.00;1.90;;;21.90;51.10;;;;;;4926481;29;20579;-65
2023/01/27 01:41:29;;;;;;;2.33;2.13;;;21.90;51.10;;;;;;4933116;29;20856;-65
2023/01/27 01:43:57;;;;;;;2.13;1.93;;;21.90;51.10;;;;;;4931917;29;20760;-65
2023/01/27 01:46:25;;;;;;;1.97;1.87;;;21.90;51.10;;;;;;4930663;29;20473;-65
2023/01/27 01:48:58;;;;;;;3.50;2.30;;;22.00;51.10;;;;;;4933582;29;20527;-65
2023/01/27 01:51:31;;;;;;;2.40;2.20;;;21.90;51.10;;;;;;4945807;28;20476;-65
2023/01/27 01:54:03;;;;;;;1.80;1.70;;;21.90;51.00;;;;;;4933376;29;20485;-65
2023/01/27 01:56:38;;;;;;;2.20;2.00;;;21.90;51.00;;;;;;4930701;29;20451;-65
2023/01/27 01:59:11;;;;;;;2.40;2.10;;;22.00;51.00;;;;;;4942536;29;20556;-65
2023/01/27 02:01:39;;;;;;;1.87;1.70;;;21.90;51.00;;;;;;4928232;29;20999;-65
2023/01/27 02:04:15;;;;;;;2.47;2.20;;;21.90;51.10;;;;;;4925723;29;20467;-65
2023/01/27 02:06:49;;;;;;;2.00;1.90;;;21.90;51.10;;;;;;4929272;29;20477;-65
2023/01/27 02:09:20;;;;;;;2.10;2.00;;;21.90;51.10;;;;;;4929122;29;20994;-65
2023/01/27 02:11:48;;;;;;;1.90;1.80;;;21.90;51.10;;;;;;4925493;29;21351;-65
2023/01/27 02:14:18;;;;;;;2.50;2.30;;;21.90;51.00;;;;;;4927956;29;20451;-65
2023/01/27 02:16:48;;;;;;;1.93;1.83;;;21.90;51.00;;;;;;4928228;29;20479;-65
2023/01/27 02:19:24;;;;;;;1.83;1.73;;;21.90;51.00;;;;;;4932167;29;20518;-65
2023/01/27 02:21:56;;;;;;;2.50;2.30;;;21.90;51.00;;;;;;4927888;29;20503;-65
2023/01/27 02:24:33;;;;;;;2.40;2.20;;;21.90;51.10;;;;;;4930891;29;20456;-65
2023/01/27 02:27:04;;;;;;;1.83;1.70;;;21.90;51.10;;;;;;4927160;29;20466;-66
2023/01/27 02:29:32;;;;;;;1.97;1.80;;;21.90;51.10;;;;;;4931673;29;20471;-66
2023/01/27 02:32:00;;;;;;;2.17;2.07;;;21.90;51.10;;;;;;4928911;29;20471;-65
2023/01/27 02:34:35;;;;;;;2.10;1.90;;;21.90;51.10;;;;;;4928546;29;20521;-65
2023/01/27 02:37:07;;;;;;;2.27;2.07;;;21.90;51.10;;;;;;4941593;29;20526;-66
2023/01/27 02:39:39;;;;;;;2.33;2.07;;;21.90;51.10;;;;;;4932303;29;20514;-66
2023/01/27 02:42:12;;;;;;;1.77;1.67;;;21.90;51.10;;;;;;4922356;29;20490;-65
2023/01/27 02:44:40;;;;;;;2.00;1.80;;;22.00;51.10;;;;;;4942411;28;20963;-66
2023/01/27 02:47:08;;;;;;;2.00;1.80;;;21.90;51.10;;;;;;4930444;29;20471;-65
2023/01/27 02:49:37;;;;;;;1.60;1.50;;;21.90;51.10;;;;;;4927268;29;20924;-65
2023/01/27 02:52:05;;;;;;;1.80;1.70;;;22.00;51.00;;;;;;4929525;29;20463;-65
2023/01/27 02:54:34;;;;;;;1.53;1.43;;;21.90;51.00;;;;;;4932273;29;20458;-65
2023/01/27 02:57:02;;;;;;;1.87;1.77;;;21.90;51.00;;;;;;4930483;29;20474;-65
2023/01/27 02:59:35;;;;;;;1.83;1.60;;;21.90;51.00;;;;;;4927703;29;20962;-65
2023/01/27 03:02:03;;;;;;;2.17;1.97;;;21.90;51.00;;;;;;4932414;29;20975;-67
2023/01/27 03:04:32;;;;;;;1.73;1.63;;;22.00;50.90;;;;;;4931200;29;20474;-65
2023/01/27 03:07:00;;;;;;;2.17;2.00;;;22.00;50.90;;;;;;4929634;29;20472;-65
2023/01/27 03:09:28;;;;;;;1.50;1.40;;;21.90;50.90;;;;;;4932890;29;21354;-65
2023/01/27 03:20:15;;;;;;;2.03;1.93;;;21.90;50.90;;;;;;4931725;29;20474;-65
2023/01/27 03:22:43;;;;;;;1.30;1.20;;;21.90;50.80;;;;;;4928832;29;20463;-65
2023/01/27 03:25:13;;;;;;;2.03;1.87;;;21.90;50.80;;;;;;4946367;29;20475;-65
2023/01/27 03:27:42;;;;;;;1.10;1.10;;;21.90;50.70;;;;;;4929933;29;20484;-65
2023/01/27 03:30:22;;;;;;;1.83;1.73;;;21.90;50.80;;;;;;4926968;29;20816;-65
2023/01/27 03:33:04;;;;;;;1.63;1.53;;;21.90;50.80;;;;;;4929591;29;20476;-65
2023/01/27 03:47:07;;;;;;;1.50;1.13;;;21.90;50.70;;;;;;4928417;29;21083;-65
2023/01/27 03:49:35;;;;;;;2.80;1.77;;;21.90;50.70;;;;;;4932194;29;20839;-65
2023/01/27 03:52:04;;;;;;;2.20;1.53;;;21.90;50.80;;;;;;4930156;29;20554;-65
2023/01/27 03:54:32;;;;;;;1.57;1.47;;;21.90;50.70;;;;;;4931636;29;20463;-65
2023/01/27 03:57:04;;;;;;;1.90;1.67;;;21.90;50.80;;;;;;4928429;29;20518;-65
2023/01/27 03:59:34;;;;;;;1.73;1.63;;;21.90;50.80;;;;;;4928302;29;20828;-65
2023/01/27 04:07:36;;;;;;;1.80;1.70;;;21.90;50.80;;;;;;4931186;29;20464;-65
2023/01/27 04:10:05;;;;;;;1.43;1.33;;;21.90;50.80;;;;;;4928952;29;20483;-65
2023/01/27 04:12:32;;;;;;;1.63;1.47;;;21.90;50.80;;;;;;4934265;29;20486;-65
2023/01/27 04:15:00;;;;;;;1.30;1.20;;;21.90;50.80;;;;;;4933672;29;20495;-65
2023/01/27 04:17:29;;;;;;;1.40;1.30;;;21.90;50.80;;;;;;4927451;29;20461;-65
2023/01/27 04:19:59;;;;;;;1.50;1.40;;;21.90;50.70;;;;;;4932918;29;20455;-64
2023/01/27 04:22:27;;;;;;;1.70;1.60;;;21.90;50.80;;;;;;4932153;29;20460;-64
2023/01/27 04:24:55;;;;;;;1.50;1.40;;;21.90;50.80;;;;;;4933968;29;20457;-65
2023/01/27 04:27:23;;;;;;;1.50;1.40;;;21.90;50.80;;;;;;4932305;29;20452;-65
2023/01/27 04:29:52;;;;;;;1.40;1.30;;;21.90;50.80;;;;;;4932966;29;21024;-65
2023/01/27 04:32:20;;;;;;;1.57;1.47;;;21.90;50.80;;;;;;4932053;29;20542;-65
2023/01/27 04:34:48;;;;;;;1.63;1.53;;;21.90;50.80;;;;;;4929484;29;21238;-65
2023/01/27 04:37:18;;;;;;;1.40;1.30;;;21.90;50.80;;;;;;4931026;29;22747;-65
2023/01/27 04:39:46;;;;;;;1.17;1.17;;;21.90;50.70;;;;;;4926268;29;20466;-65
2023/01/27 04:42:14;;;;;;;1.50;1.40;;;21.90;50.70;;;;;;4928590;29;20484;-64
2023/01/27 04:44:42;;;;;;;1.67;1.53;;;21.90;50.70;;;;;;4933940;29;20832;-65
2023/01/27 04:47:10;;;;;;;1.23;1.13;;;21.90;50.70;;;;;;4932004;29;20465;-65
2023/01/27 04:49:38;;;;;;;1.63;1.30;;;21.90;50.70;;;;;;4931254;29;20476;-64
2023/01/27 04:52:07;;;;;;;1.60;1.50;;;21.90;50.70;;;;;;4931235;29;20952;-65
2023/01/27 04:54:36;;;;;;;1.40;1.30;;;21.90;50.70;;;;;;4934350;29;20464;-65
2023/01/27 04:57:04;;;;;;;1.20;1.10;;;21.90;50.70;;;;;;4932841;29;20479;-65
2023/01/27 04:59:32;;;;;;;1.60;1.50;;;21.90;50.70;;;;;;4929423;29;20567;-65
2023/01/27 05:02:03;;;;;;;1.60;1.50;;;21.90;50.70;;;;;;4931766;29;20455;-65
2023/01/27 05:04:31;;;;;;;1.73;1.63;;;21.90;50.60;;;;;;4931190;29;20852;-65
2023/01/27 05:06:59;;;;;;;1.03;1.00;;;21.90;50.60;;;;;;4929011;29;20936;-65
2023/01/27 05:09:28;;;;;;;1.30;1.20;;;21.90;50.60;;;;;;4927440;29;20491;-65
2023/01/27 05:11:57;;;;;;;1.63;1.53;;;21.90;50.60;;;;;;4932355;29;20963;-65
2023/01/27 05:14:26;;;;;;;1.43;1.33;;;21.90;50.60;;;;;;4930347;29;20486;-65
2023/01/27 05:16:55;;;;;;;1.03;1.03;;;21.90;50.60;;;;;;4924886;29;20462;-65
2023/01/27 05:19:23;;;;;;;1.40;1.30;;;21.90;50.60;;;;;;4932860;29;20462;-65
2023/01/27 05:21:51;;;;;;;1.63;1.53;;;21.90;50.60;;;;;;4931526;29;20969;-65
2023/01/27 05:24:19;;;;;;;1.50;1.40;;;21.90;50.60;;;;;;4933096;29;20779;-65
2023/01/27 05:26:48;;;;;;;1.37;1.10;;;21.90;50.60;;;;;;4934714;29;20460;-65
2023/01/27 05:29:19;;;;;;;2.47;1.57;;;21.90;50.60;;;;;;4934025;29;20529;-65
2023/01/27 05:31:47;;;;;;;1.60;1.50;;;21.90;50.60;;;;;;4928195;29;20453;-65
2023/01/27 05:34:18;;;;;;;1.07;1.07;;;21.90;50.70;;;;;;4926630;29;20465;-65
2023/01/27 05:36:46;;;;;;;1.70;1.60;;;21.90;50.70;;;;;;4930961;29;20493;-65
2023/01/27 05:39:14;;;;;;;1.23;1.13;;;21.90;50.70;;;;;;4930563;29;20460;-65
2023/01/27 05:41:43;;;;;;;1.53;1.43;;;21.90;50.80;;;;;;4924279;29;20575;-65
2023/01/27 05:44:12;;;;;;;2.73;1.03;;;21.90;50.80;;;;;;4928353;29;20553;-67
2023/01/27 05:46:42;;;;;;;1.30;1.20;;;21.90;50.80;;;;;;4931780;29;20497;-66
2023/01/27 05:49:10;;;;;;;1.33;1.17;;;22.00;50.80;;;;;;4932894;29;20554;-66
2023/01/27 05:51:39;;;;;;;1.47;1.37;;;22.00;50.90;;;;;;4931362;29;20484;-66
2023/01/27 05:54:09;;;;;;;1.57;1.47;;;22.00;50.90;;;;;;4930346;29;20566;-65
2023/01/27 05:56:38;;;;;;;1.67;1.40;;;22.00;51.00;;;;;;4931085;29;20492;-65
2023/01/27 05:59:06;;;;;;;1.77;1.30;;;22.00;51.10;;;;;;4931839;29;20932;-65
2023/01/27 06:01:36;;;;;;;1.47;1.30;;;22.00;51.20;;;;;;4924123;29;20791;-66
2023/01/27 06:04:06;;;;;;;2.10;1.57;;;22.00;51.30;;;;;;4929301;29;20467;-66
2023/01/27 06:06:35;;;;;;;3.73;1.60;;;22.00;51.30;;;;;;4930647;29;20496;-66
2023/01/27 06:09:03;;;;;;;6.40;2.20;;;22.00;51.40;;;;;;4929222;29;20549;-66
2023/01/27 06:11:31;;;;;;;8.03;2.93;;;22.00;51.40;;;;;;4929152;29;21026;-65
2023/01/27 06:14:00;;;;;;;8.87;3.03;;;21.90;51.50;;;;;;4931201;29;20554;-64
2023/01/27 06:16:28;;;;;;;4.10;2.47;;;21.90;51.60;;;;;;4929305;29;20468;-65
2023/01/27 06:18:57;;;;;;;7.30;3.33;;;21.90;51.60;;;;;;4931108;29;20459;-65
2023/01/27 06:21:27;;;;;;;8.13;4.13;;;21.80;51.70;;;;;;4925498;29;20474;-65
2023/01/27 06:23:56;;;;;;;6.17;4.20;;;21.80;51.80;;;;;;4927488;29;20522;-66
2023/01/27 06:26:26;;;;;;;7.87;4.30;;;21.80;51.80;;;;;;4927246;29;20459;-65
2023/01/27 06:28:59;;;;;;;13.57;6.20;;;21.80;51.90;;;;;;4924322;29;20488;-65
2023/01/27 06:31:27;;;;;;;6.43;5.73;;;21.80;52.00;;;;;;4923724;29;20482;-66
2023/01/27 06:33:55;;;;;;;12.73;5.97;;;21.80;52.10;;;;;;4924025;29;20462;-66
2023/01/27 06:36:23;;;;;;;11.50;5.33;;;21.80;52.10;;;;;;4918756;29;20556;-65
2023/01/27 06:38:56;;;;;;;10.87;6.73;;;21.80;52.20;;;;;;4921740;29;20515;-66
2023/01/27 06:41:24;;;;;;;11.50;6.40;;;21.80;52.20;;;;;;4922934;29;20499;-65
2023/01/27 06:43:52;;;;;;;11.67;6.63;;;21.80;52.20;;;;;;4919318;29;20470;-65
2023/01/27 06:46:20;;;;;;;15.83;6.93;;;21.80;52.20;;;;;;4925300;29;20460;-65
2023/01/27 06:48:49;;;;;;;12.80;7.00;;;21.90;52.20;;;;;;4923312;29;20467;-65
2023/01/27 06:51:17;;;;;;;12.80;6.47;;;21.90;52.20;;;;;;4930219;29;20549;-65
2023/01/27 06:53:45;;;;;;;14.93;6.53;;;21.80;52.30;;;;;;4928139;29;20478;-65
2023/01/27 06:56:14;;;;;;;13.57;6.90;;;21.80;52.30;;;;;;4924827;29;20447;-65
2023/01/27 06:58:44;;;;;;;12.00;6.57;;;21.90;52.40;;;;;;4927841;29;20480;-65
2023/01/27 07:01:12;;;;;;;14.63;7.20;;;21.90;52.40;;;;;;4932055;29;20939;-65
2023/01/27 07:03:41;;;;;;;10.70;6.30;;;21.90;52.40;;;;;;4944840;29;20456;-66
2023/01/27 07:06:13;;;;;;;19.37;9.07;;;21.90;52.40;;;;;;4925266;29;20500;-65
2023/01/27 07:08:44;;;;;;;15.57;8.10;;;21.90;52.50;;;;;;4924536;29;21259;-65
2023/01/27 07:11:14;;;;;;;22.67;8.53;;;21.90;52.50;;;;;;4923420;29;20515;-65
2023/01/27 07:13:42;;;;;;;13.97;7.40;;;21.90;52.50;;;;;;4927876;29;20463;-65
2023/01/27 07:16:10;;;;;;;14.93;7.33;;;21.90;52.60;;;;;;4925405;29;20977;-65
2023/01/27 07:18:38;;;;;;;14.50;8.47;;;21.90;52.90;;;;;;4928196;29;20476;-64
2023/01/27 07:21:07;;;;;;;16.00;7.67;;;22.00;53.00;;;;;;4930260;29;20943;-65
2023/01/27 07:23:35;;;;;;;9.67;6.77;;;22.00;53.20;;;;;;4922677;29;20579;-76
2023/01/27 07:26:03;;;;;;;15.73;7.33;;;22.00;53.40;;;;;;4923202;29;20449;-75
2023/01/27 07:28:47;;;;;;;11.97;7.50;;;22.00;53.80;;;;;;4922527;29;20564;-71
2023/01/27 07:31:15;;;;;;;13.73;7.40;;;22.00;54.30;;;;;;4922044;29;20472;-72
2023/01/27 07:33:44;;;;;;;12.47;7.07;;;22.00;54.90;;;;;;4923930;29;20520;-70
2023/01/27 07:36:12;;;;;;;14.07;7.90;;;22.00;55.40;;;;;;4928829;29;20515;-68
2023/01/27 07:38:40;;;;;;;13.83;7.10;;;22.00;55.60;;;;;;4924248;29;20469;-67
2023/01/27 07:41:10;;;;;;;15.77;8.30;;;22.10;55.70;;;;;;4923384;29;20488;-67
2023/01/27 07:43:38;;;;;;;12.50;6.63;;;22.10;55.90;;;;;;4921311;29;20459;-68
2023/01/27 07:46:09;;;;;;;15.27;6.30;;;22.10;55.90;;;;;;4928936;29;20458;-68
2023/01/27 07:48:37;;;;;;;17.97;8.57;;;22.10;56.00;;;;;;4931739;29;20478;-67
2023/01/27 07:51:05;;;;;;;11.43;7.00;;;22.10;56.00;;;;;;4929072;29;20795;-67
2023/01/27 07:53:34;;;;;;;11.27;6.77;;;22.00;55.90;;;;;;4931310;29;20810;-68
2023/01/27 07:56:02;;;;;;;9.67;5.87;;;22.00;55.90;;;;;;4931809;29;20577;-67
2023/01/27 07:58:30;;;;;;;10.17;6.40;;;22.00;55.90;;;;;;4927604;29;20505;-67
2023/01/27 08:00:58;;;;;;;14.93;6.03;;;22.00;55.80;;;;;;4931259;29;20497;-68
2023/01/27 08:03:28;;;;;;;11.50;6.00;;;22.00;55.70;;;;;;4930983;29;20465;-68
2023/01/27 08:05:56;;;;;;;11.63;6.27;;;22.00;55.70;;;;;;4928827;29;20483;-66
2023/01/27 08:08:24;;;;;;;8.63;6.17;;;22.00;55.60;;;;;;4934060;29;20951;-68
2023/01/27 08:10:53;;;;;;;9.23;5.23;;;22.00;55.60;;;;;;4931226;29;20486;-67
2023/01/27 08:13:21;;;;;;;12.27;6.10;;;22.00;55.60;;;;;;4932474;29;20562;-67
2023/01/27 08:15:56;;;;;;;12.03;6.13;;;22.00;55.60;;;;;;4927428;29;20586;-68
2023/01/27 08:18:24;;;;;;;9.33;5.53;;;22.00;55.60;;;;;;4934795;29;20947;-68
2023/01/27 08:20:54;;;;;;;8.37;5.40;;;22.00;55.60;;;;;;4933728;29;20475;-67
2023/01/27 08:23:22;;;;;;;8.83;5.33;;;22.00;55.60;;;;;;4932916;29;20803;-67
2023/01/27 08:25:51;;;;;;;9.53;5.87;;;22.00;55.60;;;;;;4927189;29;20819;-67
2023/01/27 08:28:19;;;;;;;9.90;7.00;;;22.00;55.50;;;;;;4927206;29;20467;-68
2023/01/27 08:30:50;;;;;;;10.70;6.33;;;22.00;55.40;;;;;;4932582;29;20534;-67
2023/01/27 08:33:19;;;;;;;11.13;6.33;;;22.00;55.30;;;;;;4932122;29;20464;-68
2023/01/27 08:35:48;;;;;;;7.10;5.00;;;22.00;55.30;;;;;;4920835;29;20471;-68
2023/01/27 08:38:19;;;;;;;12.17;5.30;;;22.00;55.20;;;;;;4932256;29;20473;-67
2023/01/27 08:40:48;;;;;;;7.90;5.30;;;22.00;55.10;;;;;;4928960;29;20793;-67
2023/01/27 08:43:16;;;;;;;8.50;4.97;;;22.00;55.10;;;;;;4922345;29;20495;-66
2023/01/27 08:45:46;;;;;;;6.30;5.00;;;22.00;55.00;;;;;;4926100;29;20500;-67
2023/01/27 08:48:14;;;;;;;11.90;4.80;;;22.00;55.00;;;;;;4926743;29;20861;-67
2023/01/27 08:50:43;;;;;;;9.63;4.97;;;22.00;55.00;;;;;;4932668;29;20463;-66
2023/01/27 08:53:11;;;;;;;9.50;5.83;;;22.00;55.00;;;;;;4931623;29;20473;-68
2023/01/27 08:55:40;;;;;;;6.67;5.07;;;22.00;54.90;;;;;;4926713;29;20876;-67
2023/01/27 08:58:08;;;;;;;7.93;4.63;;;22.00;54.90;;;;;;4926618;29;20507;-67
2023/01/27 09:00:37;;;;;;;7.20;4.67;;;22.00;54.80;;;;;;4926411;29;20550;-67
2023/01/27 09:03:05;;;;;;;6.83;3.60;;;22.00;54.70;;;;;;4933887;29;20455;-67
2023/01/27 09:05:36;;;;;;;8.47;4.50;;;22.00;54.70;;;;;;4934010;29;20525;-69
2023/01/27 09:08:04;;;;;;;7.40;4.60;;;22.10;54.60;;;;;;4928679;29;20467;-66
2023/01/27 09:10:36;;;;;;;6.17;3.57;;;22.10;54.50;;;;;;4928400;29;20455;-67
2023/01/27 09:13:09;;;;;;;8.23;4.40;;;22.10;54.50;;;;;;4927951;29;21206;-66
2023/01/27 09:15:39;;;;;;;7.43;3.83;;;22.10;54.40;;;;;;4928493;29;20496;-66
2023/01/27 09:18:07;;;;;;;3.97;3.33;;;22.10;54.30;;;;;;4935381;29;20486;-65
2023/01/27 09:20:38;;;;;;;6.80;4.73;;;22.10;54.20;;;;;;4927265;29;20539;-64
2023/01/27 09:23:07;;;;;;;5.43;4.13;;;22.10;54.30;;;;;;4931269;29;20459;-64
2023/01/27 09:25:35;;;;;;;7.30;4.17;;;22.10;54.50;;;;;;4928234;29;20455;-64
2023/01/27 09:28:03;;;;;;;5.87;3.87;;;22.10;54.40;;;;;;4930937;29;20530;-65
2023/01/27 09:30:33;;;;;;;6.03;4.87;;;22.10;54.40;;;;;;4932835;29;20568;-65
2023/01/27 09:33:01;;;;;;;5.50;3.47;;;22.10;54.40;;;;;;4929183;29;20493;-64
2023/01/27 09:35:36;;;;;;;4.70;3.70;;;22.10;54.30;;;;;;4928166;29;20939;-64
2023/01/27 09:38:06;;;;;;;6.00;4.53;;;22.10;54.20;;;;;;4927023;29;20483;-65
2023/01/27 09:40:49;;;;;;;8.00;4.40;;;22.10;54.10;;;;;;4928181;29;20496;-64
2023/01/27 09:43:45;;;;;;;8.00;4.30;;;22.10;54.10;;;;;;4930220;29;20462;-65
2023/01/27 09:46:37;;;;;;;7.67;5.07;;;22.10;54.10;;;;;;4932544;29;20952;-65
2023/01/27 09:49:28;;;;;;;5.23;3.73;;;22.10;54.00;;;;;;4917281;29;20531;-65
2023/01/27 09:52:10;;;;;;;5.40;3.40;;;22.10;53.90;;;;;;4927969;29;20575;-65
2023/01/27 09:54:54;;;;;;;5.90;3.77;;;22.10;53.90;;;;;;4932021;29;20462;-65
2023/01/27 09:57:33;;;;;;;5.90;3.90;;;22.10;53.80;;;;;;4927154;29;20788;-64
2023/01/27 10:00:16;;;;;;;5.67;3.40;;;22.10;53.80;;;;;;4930812;29;20536;-65
2023/01/27 10:03:02;;;;;;;3.90;3.23;;;22.10;53.80;;;;;;4929979;29;20471;-65
2023/01/27 10:05:49;;;;;;;4.40;2.93;;;22.10;53.70;;;;;;4929541;29;20454;-65
2023/01/27 10:08:44;;;;;;;4.60;3.30;;;22.10;53.70;;;;;;4927685;29;20473;-65
2023/01/27 10:11:20;;;;;;;7.00;3.13;;;22.10;53.70;;;;;;4929944;29;20499;-64
2023/01/27 10:14:01;;;;;;;4.13;3.73;;;22.10;53.70;;;;;;4927955;29;20471;-65
2023/01/27 10:16:45;;;;;;;4.40;3.20;;;22.10;53.80;;;;;;4926877;29;20468;-65
2023/01/27 10:19:29;;;;;;;3.10;2.60;;;22.10;53.70;;;;;;4929645;29;20475;-64
2023/01/27 10:22:11;;;;;;;4.97;3.53;;;22.10;53.70;;;;;;4925985;29;20522;-64
2023/01/27 10:24:57;;;;;;;4.80;3.07;;;22.10;53.70;;;;;;4928069;29;20472;-64
2023/01/27 10:27:26;;;;;;;3.93;3.33;;;22.10;53.70;;;;;;4928458;29;20487;-65
2023/01/27 10:29:58;;;;;;;3.90;3.20;;;22.10;53.60;;;;;;4927758;29;20563;-65
2023/01/27 10:32:27;;;;;;;4.80;3.33;;;22.10;53.60;;;;;;4928028;29;20480;-65
2023/01/27 10:35:12;;;;;;;3.70;3.40;;;22.20;53.50;;;;;;4928272;29;20898;-64
2023/01/27 10:37:56;;;;;;;5.27;3.07;;;22.20;53.40;;;;;;4928699;29;20887;-65
2023/01/27 10:40:33;;;;;;;3.40;2.60;;;22.20;53.40;;;;;;4928171;29;20498;-66
2023/01/27 10:43:06;;;;;;;5.67;2.90;;;22.20;53.40;;;;;;4928552;29;20462;-66
2023/01/27 10:45:38;;;;;;;5.33;3.90;;;22.20;53.40;;;;;;4928613;29;20467;-65
2023/01/27 10:48:32;;;;;;;4.23;3.30;;;22.20;53.60;;;;;;4930790;29;20490;-66
2023/01/27 10:51:06;;;;;;;3.30;2.47;;;22.20;53.70;;;;;;4916921;29;20466;-66
2023/01/27 10:53:43;;;;;;;4.50;2.73;;;22.20;53.70;;;;;;4932031;29;20566;-66
2023/01/27 10:56:17;;;;;;;4.37;3.20;;;22.20;53.70;;;;;;4925851;29;20958;-65
2023/01/27 10:58:55;;;;;;;2.50;2.30;;;22.20;53.70;;;;;;4929509;29;20517;-66
2023/01/27 11:01:30;;;;;;;5.20;3.50;;;22.20;53.70;;;;;;4928764;29;20554;-66
2023/01/27 11:04:03;;;;;;;3.77;3.13;;;22.20;53.80;;;;;;4926032;29;20471;-66
2023/01/27 11:06:37;;;;;;;4.00;3.60;;;22.20;53.70;;;;;;4926116;29;20472;-65
2023/01/27 11:09:13;;;;;;;4.13;2.40;;;22.20;53.70;;;;;;4931604;29;20530;-65
2023/01/27 11:11:44;;;;;;;3.00;2.70;;;22.20;53.80;;;;;;4930638;29;20552;-65
2023/01/27 11:14:17;;;;;;;5.77;3.30;;;22.20;53.80;;;;;;4928384;29;20544;-66
2023/01/27 11:16:48;;;;;;;2.80;2.60;;;22.20;53.80;;;;;;4930954;29;20565;-66
2023/01/27 11:19:28;;;;;;;2.43;2.23;;;22.20;53.70;;;;;;4933229;29;20547;-66
2023/01/27 11:21:59;;;;;;;2.87;2.57;;;22.20;53.70;;;;;;4936116;29;20495;-66
2023/01/27 11:24:43;;;;;;;3.37;3.00;;;22.10;53.70;;;;;;4930418;29;20463;-66
2023/01/27 11:27:19;;;;;;;3.23;2.93;;;22.10;53.70;;;;;;4938555;29;20469;-66
2023/01/27 11:29:52;;;;;;;4.33;3.03;;;22.10;53.70;;;;;;4931703;29;20467;-65
2023/01/27 11:32:30;;;;;;;3.53;2.50;;;22.20;53.70;;;;;;4933722;29;20474;-66
2023/01/27 11:35:03;;;;;;;2.80;2.17;;;22.20;53.70;;;;;;4933433;29;20848;-66
2023/01/27 11:37:37;;;;;;;3.20;2.77;;;22.20;53.70;;;;;;4930778;29;20503;-66
2023/01/27 11:40:15;;;;;;;4.10;3.57;;;22.20;53.60;;;;;;4931492;29;20613;-66
2023/01/27 11:42:45;;;;;;;3.50;3.20;;;22.20;53.70;;;;;;4925967;29;20468;-66
2023/01/27 11:45:19;;;;;;;3.50;2.73;;;22.20;53.70;;;;;;4931897;29;20475;-66
2023/01/27 11:47:51;;;;;;;3.30;2.57;;;22.20;53.70;;;;;;4933211;29;20497;-65
2023/01/27 11:50:23;;;;;;;2.47;2.27;;;22.20;53.80;;;;;;4936523;29;20489;-65
2023/01/27 11:53:03;;;;;;;2.23;2.03;;;22.20;53.70;;;;;;4930846;29;20541;-65
2023/01/27 11:55:38;;;;;;;4.10;2.50;;;22.20;53.70;;;;;;4928727;29;20458;-65
2023/01/27 11:58:13;;;;;;;2.93;2.57;;;22.20;53.60;;;;;;4928485;29;20884;-66
2023/01/27 12:00:45;;;;;;;2.30;2.10;;;22.20;53.60;;;;;;4935043;29;20596;-66
2023/01/27 12:03:20;;;;;;;2.50;2.27;;;22.20;53.60;;;;;;4934070;29;20571;-65
2023/01/27 12:05:54;;;;;;;2.10;1.90;;;22.20;53.50;;;;;;4932534;29;20544;-66
2023/01/27 12:08:43;;;;;;;2.20;2.00;;;22.20;53.60;;;;;;4936181;29;20478;-66
2023/01/27 12:11:23;;;;;;;3.10;2.80;;;22.20;53.50;;;;;;4933163;29;20505;-69
2023/01/27 12:13:53;;;;;;;2.80;2.27;;;22.30;53.50;;;;;;4934736;29;20511;-66
2023/01/27 12:16:24;;;;;;;3.03;2.73;;;22.30;53.40;;;;;;4933245;29;20494;-66
2023/01/27 12:18:57;;;;;;;3.30;2.40;;;22.30;53.30;;;;;;4934692;29;20469;-66
2023/01/27 12:21:40;;;;;;;2.70;2.27;;;22.30;53.20;;;;;;4932422;29;20462;-66
2023/01/27 12:24:23;;;;;;;3.33;2.20;;;22.30;53.10;;;;;;4933718;29;20455;-66
2023/01/27 12:26:53;;;;;;;2.97;2.00;;;22.30;53.10;;;;;;4929581;29;21179;-66
2023/01/27 12:29:27;;;;;;;2.20;1.90;;;22.30;53.00;;;;;;4928290;29;20499;-66
2023/01/27 12:31:58;;;;;;;2.30;2.07;;;22.30;53.00;;;;;;4929521;29;20575;-67
2023/01/27 12:34:30;;;;;;;2.90;2.00;;;22.30;52.90;;;;;;4934107;29;20506;-66
2023/01/27 12:36:59;;;;;;;2.87;2.67;;;22.30;52.90;;;;;;4933455;29;20483;-66
2023/01/27 12:39:45;;;;;;;2.13;1.93;;;22.30;52.90;;;;;;4924940;29;20448;-66
2023/01/27 12:42:33;;;;;;;3.30;2.20;;;22.30;52.90;;;;;;4925605;29;20497;-66
2023/01/27 12:45:23;;;;;;;2.40;2.10;;;22.30;52.90;;;;;;4935280;29;20466;-66
2023/01/27 12:48:01;;;;;;;2.77;2.57;;;22.20;53.00;;;;;;4934892;29;20459;-66
2023/01/27 12:50:31;;;;;;;2.20;2.00;;;22.20;53.00;;;;;;4936768;29;20467;-66
2023/01/27 12:53:11;;;;;;;1.83;1.73;;;22.20;53.00;;;;;;4933589;29;20499;-66
2023/01/27 12:55:43;;;;;;;3.67;2.23;;;22.10;53.00;;;;;;4933883;29;20483;-66
2023/01/27 12:58:37;;;;;;;2.90;1.93;;;22.10;53.10;;;;;;4932941;29;20465;-66
2023/01/27 13:01:18;;;;;;;2.07;1.87;;;22.10;53.10;;;;;;4929070;29;20470;-66
2023/01/27 13:03:51;;;;;;;2.87;1.87;;;22.10;53.10;;;;;;4932713;29;20483;-66
2023/01/27 13:06:28;;;;;;;2.20;2.10;;;22.00;53.20;;;;;;4918531;29;20971;-66
2023/01/27 13:09:00;;;;;;;2.83;2.40;;;22.00;53.20;;;;;;4920825;29;20507;-66
2023/01/27 13:11:37;;;;;;;2.10;1.90;;;22.00;53.20;;;;;;4922588;29;21083;-66
2023/01/27 13:14:09;;;;;;;2.27;2.07;;;22.00;53.30;;;;;;4919292;29;20508;-66
2023/01/27 13:16:38;;;;;;;3.33;2.50;;;22.00;53.30;;;;;;4920624;29;20500;-66
2023/01/27 13:19:16;;;;;;;2.40;2.20;;;22.00;53.30;;;;;;4922625;29;20444;-66
2023/01/27 13:21:48;;;;;;;2.67;2.37;;;22.00;53.30;;;;;;4943152;29;20828;-66
2023/01/27 13:24:33;;;;;;;2.50;1.80;;;22.00;53.30;;;;;;4926131;29;20455;-66
2023/01/27 13:27:05;;;;;;;2.37;1.97;;;22.00;53.20;;;;;;4928730;29;20465;-66
2023/01/27 13:29:36;;;;;;;1.73;1.63;;;22.00;53.20;;;;;;4929014;29;20473;-66
2023/01/27 13:32:09;;;;;;;4.00;2.30;;;22.00;53.20;;;;;;4924288;29;20467;-66
2023/01/27 13:34:43;;;;;;;1.97;1.50;;;22.10;53.20;;;;;;4922236;29;20475;-66
2023/01/27 13:37:16;;;;;;;1.93;1.83;;;22.10;53.10;;;;;;4931185;29;20525;-66
2023/01/27 13:39:55;;;;;;;2.00;1.90;;;22.10;53.10;;;;;;4928568;29;20487;-66
2023/01/27 13:42:29;;;;;;;2.47;1.73;;;22.10;53.00;;;;;;4933510;29;20808;-66
2023/01/27 13:45:01;;;;;;;2.27;2.00;;;22.20;53.00;;;;;;4928057;29;20510;-66